sensor_id;sensor_type;location;lat;lon;timestamp;P1;durP1;ratioP1;P2;durP2;ratioP2
78728;SDS011;68252;44.944;20.218;2023-11-22T00:01:38;70.72;;;34.90;;
78728;SDS011;68252;44.944;20.218;2023-11-22T00:04:05;67.50;;;35.58;;
78728;SDS011;68252;44.944;20.218;2023-11-22T00:06:31;72.28;;;35.42;;
78728;SDS011;68252;44.944;20.218;2023-11-22T00:08:57;68.70;;;35.95;;
78728;SDS011;68252;44.944;20.218;2023-11-22T00:11:23;64.00;;;34.40;;
78728;SDS011;68252;44.944;20.218;2023-11-22T00:13:49;65.68;;;34.53;;
78728;SDS011;68252;44.944;20.218;2023-11-22T00:16:20;61.78;;;33.55;;
78728;SDS011;68252;44.944;20.218;2023-11-22T00:18:46;59.92;;;33.97;;
78728;SDS011;68252;44.944;20.218;2023-11-22T00:21:12;60.90;;;34.22;;
78728;SDS011;68252;44.944;20.218;2023-11-22T00:23:38;59.28;;;33.08;;
78728;SDS011;68252;44.944;20.218;2023-11-22T00:26:04;65.25;;;34.08;;
78728;SDS011;68252;44.944;20.218;2023-11-22T00:28:31;62.30;;;34.25;;
78728;SDS011;68252;44.944;20.218;2023-11-22T00:30:57;63.40;;;33.55;;
78728;SDS011;68252;44.944;20.218;2023-11-22T00:33:23;61.65;;;34.80;;
78728;SDS011;68252;44.944;20.218;2023-11-22T00:35:50;61.47;;;33.65;;
78728;SDS011;68252;44.944;20.218;2023-11-22T00:38:18;58.15;;;33.92;;
78728;SDS011;68252;44.944;20.218;2023-11-22T00:40:44;58.17;;;34.25;;
78728;SDS011;68252;44.944;20.218;2023-11-22T00:43:10;63.85;;;33.42;;
78728;SDS011;68252;44.944;20.218;2023-11-22T00:45:36;55.33;;;32.60;;
78728;SDS011;68252;44.944;20.218;2023-11-22T00:48:02;55.65;;;32.53;;
78728;SDS011;68252;44.944;20.218;2023-11-22T00:50:29;53.97;;;31.83;;
78728;SDS011;68252;44.944;20.218;2023-11-22T00:52:55;57.58;;;33.03;;
78728;SDS011;68252;44.944;20.218;2023-11-22T00:55:21;68.22;;;33.65;;
78728;SDS011;68252;44.944;20.218;2023-11-22T00:57:47;57.17;;;33.72;;
78728;SDS011;68252;44.944;20.218;2023-11-22T01:00:13;61.17;;;33.28;;
78728;SDS011;68252;44.944;20.218;2023-11-22T01:02:40;64.43;;;32.47;;
78728;SDS011;68252;44.944;20.218;2023-11-22T01:05:07;54.13;;;32.15;;
78728;SDS011;68252;44.944;20.218;2023-11-22T01:07:37;59.00;;;32.97;;
78728;SDS011;68252;44.944;20.218;2023-11-22T01:10:03;57.40;;;32.70;;
78728;SDS011;68252;44.944;20.218;2023-11-22T01:12:30;58.50;;;31.55;;
78728;SDS011;68252;44.944;20.218;2023-11-22T01:14:56;53.55;;;31.92;;
78728;SDS011;68252;44.944;20.218;2023-11-22T01:17:22;50.80;;;30.02;;
78728;SDS011;68252;44.944;20.218;2023-11-22T01:19:49;51.90;;;30.33;;
78728;SDS011;68252;44.944;20.218;2023-11-22T01:22:18;53.30;;;31.73;;
78728;SDS011;68252;44.944;20.218;2023-11-22T01:24:44;52.92;;;32.45;;
78728;SDS011;68252;44.944;20.218;2023-11-22T01:27:10;49.70;;;30.80;;
78728;SDS011;68252;44.944;20.218;2023-11-22T01:29:36;57.63;;;31.40;;
78728;SDS011;68252;44.944;20.218;2023-11-22T01:32:03;48.22;;;30.67;;
78728;SDS011;68252;44.944;20.218;2023-11-22T01:34:29;54.05;;;30.05;;
78728;SDS011;68252;44.944;20.218;2023-11-22T01:36:55;53.13;;;31.30;;
78728;SDS011;68252;44.944;20.218;2023-11-22T01:39:21;51.65;;;30.98;;
78728;SDS011;68252;44.944;20.218;2023-11-22T01:41:47;51.70;;;31.50;;
78728;SDS011;68252;44.944;20.218;2023-11-22T01:44:15;51.05;;;30.48;;
78728;SDS011;68252;44.944;20.218;2023-11-22T01:46:41;52.08;;;30.98;;
78728;SDS011;68252;44.944;20.218;2023-11-22T01:49:08;49.65;;;30.38;;
78728;SDS011;68252;44.944;20.218;2023-11-22T01:51:35;53.90;;;29.63;;
78728;SDS011;68252;44.944;20.218;2023-11-22T01:54:01;51.28;;;30.75;;
78728;SDS011;68252;44.944;20.218;2023-11-22T01:56:28;48.63;;;31.00;;
78728;SDS011;68252;44.944;20.218;2023-11-22T01:58:56;50.88;;;29.63;;
78728;SDS011;68252;44.944;20.218;2023-11-22T02:01:25;49.22;;;30.02;;
78728;SDS011;68252;44.944;20.218;2023-11-22T02:03:51;49.60;;;28.77;;
78728;SDS011;68252;44.944;20.218;2023-11-22T02:06:18;51.22;;;29.77;;
78728;SDS011;68252;44.944;20.218;2023-11-22T02:08:46;52.10;;;30.83;;
78728;SDS011;68252;44.944;20.218;2023-11-22T02:11:13;49.33;;;29.60;;
78728;SDS011;68252;44.944;20.218;2023-11-22T02:16:08;56.30;;;30.92;;
78728;SDS011;68252;44.944;20.218;2023-11-22T02:18:34;51.20;;;30.27;;
78728;SDS011;68252;44.944;20.218;2023-11-22T02:21:02;50.95;;;29.33;;
78728;SDS011;68252;44.944;20.218;2023-11-22T02:23:28;49.58;;;28.15;;
78728;SDS011;68252;44.944;20.218;2023-11-22T02:25:54;46.85;;;26.40;;
78728;SDS011;68252;44.944;20.218;2023-11-22T02:28:21;41.00;;;24.90;;
78728;SDS011;68252;44.944;20.218;2023-11-22T02:30:47;48.55;;;28.00;;
78728;SDS011;68252;44.944;20.218;2023-11-22T02:33:13;43.40;;;25.55;;
78728;SDS011;68252;44.944;20.218;2023-11-22T02:35:39;47.42;;;25.77;;
78728;SDS011;68252;44.944;20.218;2023-11-22T02:38:05;48.47;;;25.13;;
78728;SDS011;68252;44.944;20.218;2023-11-22T02:40:32;40.25;;;24.55;;
78728;SDS011;68252;44.944;20.218;2023-11-22T02:42:58;43.33;;;23.83;;
78728;SDS011;68252;44.944;20.218;2023-11-22T02:45:30;40.80;;;24.05;;
78728;SDS011;68252;44.944;20.218;2023-11-22T02:47:56;37.75;;;22.42;;
78728;SDS011;68252;44.944;20.218;2023-11-22T02:50:24;45.72;;;22.25;;
78728;SDS011;68252;44.944;20.218;2023-11-22T02:52:50;42.28;;;23.08;;
78728;SDS011;68252;44.944;20.218;2023-11-22T02:55:16;37.55;;;22.10;;
78728;SDS011;68252;44.944;20.218;2023-11-22T02:57:42;37.90;;;22.08;;
78728;SDS011;68252;44.944;20.218;2023-11-22T03:00:09;38.05;;;21.77;;
78728;SDS011;68252;44.944;20.218;2023-11-22T03:05:05;38.20;;;21.27;;
78728;SDS011;68252;44.944;20.218;2023-11-22T03:07:31;38.65;;;22.55;;
78728;SDS011;68252;44.944;20.218;2023-11-22T03:09:57;37.90;;;21.98;;
78728;SDS011;68252;44.944;20.218;2023-11-22T03:12:25;36.60;;;21.92;;
78728;SDS011;68252;44.944;20.218;2023-11-22T03:14:51;40.85;;;22.42;;
78728;SDS011;68252;44.944;20.218;2023-11-22T03:17:23;35.88;;;21.70;;
78728;SDS011;68252;44.944;20.218;2023-11-22T03:19:49;41.63;;;22.88;;
78728;SDS011;68252;44.944;20.218;2023-11-22T03:22:16;38.42;;;22.30;;
78728;SDS011;68252;44.944;20.218;2023-11-22T03:24:42;43.85;;;24.48;;
78728;SDS011;68252;44.944;20.218;2023-11-22T03:27:09;40.97;;;23.15;;
78728;SDS011;68252;44.944;20.218;2023-11-22T03:29:35;41.03;;;23.35;;
78728;SDS011;68252;44.944;20.218;2023-11-22T03:32:01;45.53;;;22.77;;
78728;SDS011;68252;44.944;20.218;2023-11-22T03:34:27;42.08;;;24.08;;
78728;SDS011;68252;44.944;20.218;2023-11-22T03:36:53;43.33;;;23.63;;
78728;SDS011;68252;44.944;20.218;2023-11-22T03:39:19;41.97;;;24.23;;
78728;SDS011;68252;44.944;20.218;2023-11-22T03:41:45;44.22;;;23.52;;
78728;SDS011;68252;44.944;20.218;2023-11-22T03:44:11;39.28;;;23.15;;
78728;SDS011;68252;44.944;20.218;2023-11-22T03:46:38;45.10;;;24.40;;
78728;SDS011;68252;44.944;20.218;2023-11-22T03:49:04;40.17;;;24.15;;
78728;SDS011;68252;44.944;20.218;2023-11-22T03:51:33;37.22;;;23.38;;
78728;SDS011;68252;44.944;20.218;2023-11-22T03:54:00;50.83;;;24.23;;
78728;SDS011;68252;44.944;20.218;2023-11-22T03:56:27;42.47;;;24.27;;
78728;SDS011;68252;44.944;20.218;2023-11-22T03:58:53;45.67;;;25.67;;
78728;SDS011;68252;44.944;20.218;2023-11-22T04:01:19;40.75;;;24.17;;
78728;SDS011;68252;44.944;20.218;2023-11-22T04:03:46;51.25;;;27.45;;
78728;SDS011;68252;44.944;20.218;2023-11-22T04:06:16;45.00;;;26.38;;
78728;SDS011;68252;44.944;20.218;2023-11-22T04:08:43;49.88;;;26.20;;
78728;SDS011;68252;44.944;20.218;2023-11-22T04:11:09;47.60;;;25.83;;
78728;SDS011;68252;44.944;20.218;2023-11-22T04:13:36;44.13;;;25.48;;
78728;SDS011;68252;44.944;20.218;2023-11-22T04:16:02;42.80;;;25.55;;
78728;SDS011;68252;44.944;20.218;2023-11-22T04:18:29;43.95;;;25.25;;
78728;SDS011;68252;44.944;20.218;2023-11-22T04:20:55;43.17;;;24.88;;
78728;SDS011;68252;44.944;20.218;2023-11-22T04:23:23;46.33;;;25.23;;
78728;SDS011;68252;44.944;20.218;2023-11-22T04:25:49;44.90;;;25.52;;
78728;SDS011;68252;44.944;20.218;2023-11-22T04:28:15;45.75;;;26.80;;
78728;SDS011;68252;44.944;20.218;2023-11-22T04:30:43;46.50;;;26.55;;
78728;SDS011;68252;44.944;20.218;2023-11-22T04:33:09;49.42;;;27.92;;
78728;SDS011;68252;44.944;20.218;2023-11-22T04:35:36;48.90;;;27.05;;
78728;SDS011;68252;44.944;20.218;2023-11-22T04:38:03;42.53;;;26.42;;
78728;SDS011;68252;44.944;20.218;2023-11-22T04:40:30;47.38;;;27.60;;
78728;SDS011;68252;44.944;20.218;2023-11-22T04:42:56;52.63;;;28.83;;
78728;SDS011;68252;44.944;20.218;2023-11-22T04:45:22;50.70;;;27.40;;
78728;SDS011;68252;44.944;20.218;2023-11-22T04:47:48;48.97;;;28.15;;
78728;SDS011;68252;44.944;20.218;2023-11-22T04:50:14;50.42;;;28.60;;
78728;SDS011;68252;44.944;20.218;2023-11-22T04:52:40;53.38;;;27.45;;
78728;SDS011;68252;44.944;20.218;2023-11-22T04:55:06;56.05;;;27.27;;
78728;SDS011;68252;44.944;20.218;2023-11-22T04:57:33;50.58;;;28.33;;
78728;SDS011;68252;44.944;20.218;2023-11-22T04:59:59;51.22;;;27.63;;
78728;SDS011;68252;44.944;20.218;2023-11-22T05:02:30;50.13;;;28.88;;
78728;SDS011;68252;44.944;20.218;2023-11-22T05:04:56;57.15;;;30.88;;
78728;SDS011;68252;44.944;20.218;2023-11-22T05:07:22;54.63;;;31.60;;
78728;SDS011;68252;44.944;20.218;2023-11-22T05:09:48;55.55;;;31.50;;
78728;SDS011;68252;44.944;20.218;2023-11-22T05:12:14;59.08;;;32.75;;
78728;SDS011;68252;44.944;20.218;2023-11-22T05:14:40;59.33;;;33.80;;
78728;SDS011;68252;44.944;20.218;2023-11-22T05:17:08;62.22;;;33.45;;
78728;SDS011;68252;44.944;20.218;2023-11-22T05:19:34;64.95;;;34.78;;
78728;SDS011;68252;44.944;20.218;2023-11-22T05:22:01;62.13;;;34.30;;
78728;SDS011;68252;44.944;20.218;2023-11-22T05:24:27;65.57;;;34.38;;
78728;SDS011;68252;44.944;20.218;2023-11-22T05:26:53;74.80;;;35.42;;
78728;SDS011;68252;44.944;20.218;2023-11-22T05:29:19;66.07;;;36.42;;
78728;SDS011;68252;44.944;20.218;2023-11-22T05:31:45;71.35;;;36.17;;
78728;SDS011;68252;44.944;20.218;2023-11-22T05:34:11;64.78;;;35.75;;
78728;SDS011;68252;44.944;20.218;2023-11-22T05:36:38;64.85;;;35.13;;
78728;SDS011;68252;44.944;20.218;2023-11-22T05:39:05;70.53;;;36.05;;
78728;SDS011;68252;44.944;20.218;2023-11-22T05:41:31;71.18;;;35.88;;
78728;SDS011;68252;44.944;20.218;2023-11-22T05:43:57;93.43;;;36.65;;
78728;SDS011;68252;44.944;20.218;2023-11-22T05:46:24;69.00;;;37.28;;
78728;SDS011;68252;44.944;20.218;2023-11-22T05:48:53;76.38;;;36.92;;
78728;SDS011;68252;44.944;20.218;2023-11-22T05:51:20;70.13;;;37.25;;
78728;SDS011;68252;44.944;20.218;2023-11-22T05:53:46;77.57;;;38.22;;
78728;SDS011;68252;44.944;20.218;2023-11-22T05:56:12;74.57;;;38.17;;
78728;SDS011;68252;44.944;20.218;2023-11-22T05:58:40;81.97;;;38.63;;
78728;SDS011;68252;44.944;20.218;2023-11-22T06:01:06;79.10;;;40.13;;
78728;SDS011;68252;44.944;20.218;2023-11-22T06:03:32;80.57;;;38.83;;
78728;SDS011;68252;44.944;20.218;2023-11-22T06:05:59;77.00;;;37.72;;
78728;SDS011;68252;44.944;20.218;2023-11-22T06:08:25;85.07;;;40.33;;
78728;SDS011;68252;44.944;20.218;2023-11-22T06:10:51;80.00;;;39.55;;
78728;SDS011;68252;44.944;20.218;2023-11-22T06:13:18;89.28;;;41.50;;
78728;SDS011;68252;44.944;20.218;2023-11-22T06:15:44;93.80;;;40.88;;
78728;SDS011;68252;44.944;20.218;2023-11-22T06:18:11;80.63;;;38.65;;
78728;SDS011;68252;44.944;20.218;2023-11-22T06:20:39;76.60;;;37.70;;
78728;SDS011;68252;44.944;20.218;2023-11-22T06:23:05;82.13;;;39.53;;
78728;SDS011;68252;44.944;20.218;2023-11-22T06:25:31;83.30;;;41.38;;
78728;SDS011;68252;44.944;20.218;2023-11-22T06:27:57;89.93;;;41.05;;
78728;SDS011;68252;44.944;20.218;2023-11-22T06:30:23;88.40;;;41.25;;
78728;SDS011;68252;44.944;20.218;2023-11-22T06:32:50;92.20;;;42.55;;
78728;SDS011;68252;44.944;20.218;2023-11-22T06:35:16;89.65;;;41.85;;
78728;SDS011;68252;44.944;20.218;2023-11-22T06:37:43;94.75;;;41.80;;
78728;SDS011;68252;44.944;20.218;2023-11-22T06:40:10;98.50;;;42.88;;
78728;SDS011;68252;44.944;20.218;2023-11-22T06:42:39;100.93;;;45.00;;
78728;SDS011;68252;44.944;20.218;2023-11-22T06:45:06;93.70;;;40.58;;
78728;SDS011;68252;44.944;20.218;2023-11-22T06:47:37;101.22;;;40.50;;
78728;SDS011;68252;44.944;20.218;2023-11-22T06:50:04;90.07;;;40.85;;
78728;SDS011;68252;44.944;20.218;2023-11-22T06:52:34;104.28;;;44.45;;
78728;SDS011;68252;44.944;20.218;2023-11-22T06:55:01;110.57;;;44.38;;
78728;SDS011;68252;44.944;20.218;2023-11-22T06:57:27;109.93;;;44.75;;
78728;SDS011;68252;44.944;20.218;2023-11-22T06:59:56;109.90;;;43.63;;
78728;SDS011;68252;44.944;20.218;2023-11-22T07:02:23;99.70;;;41.05;;
78728;SDS011;68252;44.944;20.218;2023-11-22T07:04:49;95.22;;;42.25;;
78728;SDS011;68252;44.944;20.218;2023-11-22T07:07:15;99.88;;;41.40;;
78728;SDS011;68252;44.944;20.218;2023-11-22T07:09:42;107.10;;;43.47;;
78728;SDS011;68252;44.944;20.218;2023-11-22T07:12:08;90.13;;;38.97;;
78728;SDS011;68252;44.944;20.218;2023-11-22T07:14:35;89.75;;;40.33;;
78728;SDS011;68252;44.944;20.218;2023-11-22T07:17:01;92.75;;;40.38;;
78728;SDS011;68252;44.944;20.218;2023-11-22T07:19:27;87.55;;;39.65;;
78728;SDS011;68252;44.944;20.218;2023-11-22T07:21:54;92.10;;;41.38;;
78728;SDS011;68252;44.944;20.218;2023-11-22T07:24:20;88.28;;;40.40;;
78728;SDS011;68252;44.944;20.218;2023-11-22T07:26:46;94.82;;;40.50;;
78728;SDS011;68252;44.944;20.218;2023-11-22T07:29:12;94.60;;;38.30;;
78728;SDS011;68252;44.944;20.218;2023-11-22T07:31:39;92.68;;;37.33;;
78728;SDS011;68252;44.944;20.218;2023-11-22T07:34:05;90.75;;;39.58;;
78728;SDS011;68252;44.944;20.218;2023-11-22T07:36:31;96.40;;;39.70;;
78728;SDS011;68252;44.944;20.218;2023-11-22T07:38:57;95.68;;;41.17;;
78728;SDS011;68252;44.944;20.218;2023-11-22T07:41:24;106.55;;;42.67;;
78728;SDS011;68252;44.944;20.218;2023-11-22T07:43:51;99.47;;;40.10;;
78728;SDS011;68252;44.944;20.218;2023-11-22T07:46:18;98.85;;;40.58;;
78728;SDS011;68252;44.944;20.218;2023-11-22T07:48:45;98.75;;;41.38;;
78728;SDS011;68252;44.944;20.218;2023-11-22T07:51:12;97.38;;;40.65;;
78728;SDS011;68252;44.944;20.218;2023-11-22T07:56:08;100.30;;;40.63;;
78728;SDS011;68252;44.944;20.218;2023-11-22T07:58:35;102.57;;;41.22;;
78728;SDS011;68252;44.944;20.218;2023-11-22T08:01:01;114.22;;;43.10;;
78728;SDS011;68252;44.944;20.218;2023-11-22T08:05:56;105.88;;;40.22;;
78728;SDS011;68252;44.944;20.218;2023-11-22T08:08:23;98.00;;;41.28;;
78728;SDS011;68252;44.944;20.218;2023-11-22T08:10:49;108.60;;;41.95;;
78728;SDS011;68252;44.944;20.218;2023-11-22T08:15:45;93.90;;;38.58;;
78728;SDS011;68252;44.944;20.218;2023-11-22T08:18:12;93.28;;;38.63;;
78728;SDS011;68252;44.944;20.218;2023-11-22T08:20:38;96.35;;;39.20;;
78728;SDS011;68252;44.944;20.218;2023-11-22T08:23:04;95.95;;;40.17;;
78728;SDS011;68252;44.944;20.218;2023-11-22T08:25:31;108.00;;;42.50;;
78728;SDS011;68252;44.944;20.218;2023-11-22T08:27:57;98.45;;;39.28;;
78728;SDS011;68252;44.944;20.218;2023-11-22T08:30:23;106.22;;;42.53;;
78728;SDS011;68252;44.944;20.218;2023-11-22T08:32:50;98.05;;;41.75;;
78728;SDS011;68252;44.944;20.218;2023-11-22T08:35:19;100.65;;;41.40;;
78728;SDS011;68252;44.944;20.218;2023-11-22T08:37:46;95.88;;;41.67;;
78728;SDS011;68252;44.944;20.218;2023-11-22T08:40:13;98.78;;;40.83;;
78728;SDS011;68252;44.944;20.218;2023-11-22T08:42:48;91.90;;;40.65;;
78728;SDS011;68252;44.944;20.218;2023-11-22T08:45:15;86.32;;;39.35;;
78728;SDS011;68252;44.944;20.218;2023-11-22T08:47:41;83.00;;;35.35;;
78728;SDS011;68252;44.944;20.218;2023-11-22T08:50:08;84.28;;;39.72;;
78728;SDS011;68252;44.944;20.218;2023-11-22T08:52:37;85.97;;;39.33;;
78728;SDS011;68252;44.944;20.218;2023-11-22T08:55:05;92.13;;;39.70;;
78728;SDS011;68252;44.944;20.218;2023-11-22T08:57:33;88.50;;;39.55;;
78728;SDS011;68252;44.944;20.218;2023-11-22T09:00:01;88.50;;;36.90;;
78728;SDS011;68252;44.944;20.218;2023-11-22T09:02:31;89.68;;;37.78;;
78728;SDS011;68252;44.944;20.218;2023-11-22T09:04:58;82.22;;;38.17;;
78728;SDS011;68252;44.944;20.218;2023-11-22T09:07:24;84.90;;;37.40;;
78728;SDS011;68252;44.944;20.218;2023-11-22T09:09:51;89.60;;;39.00;;
78728;SDS011;68252;44.944;20.218;2023-11-22T09:12:17;86.20;;;38.75;;
78728;SDS011;68252;44.944;20.218;2023-11-22T09:14:45;88.97;;;37.20;;
78728;SDS011;68252;44.944;20.218;2023-11-22T09:17:11;87.25;;;37.03;;
78728;SDS011;68252;44.944;20.218;2023-11-22T09:19:38;78.43;;;36.28;;
78728;SDS011;68252;44.944;20.218;2023-11-22T09:22:04;82.75;;;37.17;;
78728;SDS011;68252;44.944;20.218;2023-11-22T09:24:35;92.97;;;36.97;;
78728;SDS011;68252;44.944;20.218;2023-11-22T09:27:02;92.53;;;38.10;;
78728;SDS011;68252;44.944;20.218;2023-11-22T09:29:30;93.35;;;39.03;;
78728;SDS011;68252;44.944;20.218;2023-11-22T09:31:57;84.65;;;37.10;;
78728;SDS011;68252;44.944;20.218;2023-11-22T09:34:26;85.95;;;38.50;;
78728;SDS011;68252;44.944;20.218;2023-11-22T09:36:52;92.85;;;39.53;;
78728;SDS011;68252;44.944;20.218;2023-11-22T09:39:19;83.32;;;36.55;;
78728;SDS011;68252;44.944;20.218;2023-11-22T09:41:46;89.93;;;39.17;;
78728;SDS011;68252;44.944;20.218;2023-11-22T09:44:13;85.68;;;37.08;;
78728;SDS011;68252;44.944;20.218;2023-11-22T09:46:41;84.15;;;37.13;;
78728;SDS011;68252;44.944;20.218;2023-11-22T09:49:08;88.82;;;37.63;;
78728;SDS011;68252;44.944;20.218;2023-11-22T09:51:36;90.60;;;37.95;;
78728;SDS011;68252;44.944;20.218;2023-11-22T09:54:06;88.40;;;36.10;;
78728;SDS011;68252;44.944;20.218;2023-11-22T09:56:34;84.15;;;36.17;;
78728;SDS011;68252;44.944;20.218;2023-11-22T09:59:02;79.70;;;36.65;;
78728;SDS011;68252;44.944;20.218;2023-11-22T10:01:29;78.25;;;34.38;;
78728;SDS011;68252;44.944;20.218;2023-11-22T10:03:56;81.22;;;36.92;;
78728;SDS011;68252;44.944;20.218;2023-11-22T10:06:23;87.57;;;36.58;;
78728;SDS011;68252;44.944;20.218;2023-11-22T10:08:49;87.20;;;37.35;;
78728;SDS011;68252;44.944;20.218;2023-11-22T10:11:18;87.35;;;37.03;;
78728;SDS011;68252;44.944;20.218;2023-11-22T10:13:50;87.20;;;37.67;;
78728;SDS011;68252;44.944;20.218;2023-11-22T10:16:17;87.20;;;40.55;;
78728;SDS011;68252;44.944;20.218;2023-11-22T10:18:47;90.85;;;38.33;;
78728;SDS011;68252;44.944;20.218;2023-11-22T10:23:40;91.57;;;38.72;;
78728;SDS011;68252;44.944;20.218;2023-11-22T10:26:06;90.13;;;36.03;;
78728;SDS011;68252;44.944;20.218;2023-11-22T10:28:35;91.72;;;39.65;;
78728;SDS011;68252;44.944;20.218;2023-11-22T10:31:01;91.70;;;37.95;;
78728;SDS011;68252;44.944;20.218;2023-11-22T10:33:33;100.85;;;40.50;;
78728;SDS011;68252;44.944;20.218;2023-11-22T10:36:04;79.80;;;37.60;;
78728;SDS011;68252;44.944;20.218;2023-11-22T10:38:30;90.95;;;37.90;;
78728;SDS011;68252;44.944;20.218;2023-11-22T10:40:56;92.63;;;36.60;;
78728;SDS011;68252;44.944;20.218;2023-11-22T10:43:24;86.65;;;38.95;;
78728;SDS011;68252;44.944;20.218;2023-11-22T10:45:51;82.65;;;37.15;;
78728;SDS011;68252;44.944;20.218;2023-11-22T10:48:18;78.95;;;35.50;;
78728;SDS011;68252;44.944;20.218;2023-11-22T10:50:46;82.38;;;37.10;;
78728;SDS011;68252;44.944;20.218;2023-11-22T10:53:15;83.70;;;36.58;;
78728;SDS011;68252;44.944;20.218;2023-11-22T10:55:43;81.33;;;36.43;;
78728;SDS011;68252;44.944;20.218;2023-11-22T10:58:10;84.30;;;37.28;;
78728;SDS011;68252;44.944;20.218;2023-11-22T11:00:36;79.20;;;35.60;;
78728;SDS011;68252;44.944;20.218;2023-11-22T11:03:17;76.22;;;36.08;;
78728;SDS011;68252;44.944;20.218;2023-11-22T11:05:57;85.97;;;35.95;;
78728;SDS011;68252;44.944;20.218;2023-11-22T11:08:27;75.93;;;36.33;;
78728;SDS011;68252;44.944;20.218;2023-11-22T11:10:54;72.93;;;36.15;;
78728;SDS011;68252;44.944;20.218;2023-11-22T11:13:23;78.57;;;34.53;;
78728;SDS011;68252;44.944;20.218;2023-11-22T11:15:50;71.20;;;33.47;;
78728;SDS011;68252;44.944;20.218;2023-11-22T11:18:18;72.32;;;32.28;;
78728;SDS011;68252;44.944;20.218;2023-11-22T11:23:17;74.22;;;33.65;;
78728;SDS011;68252;44.944;20.218;2023-11-22T11:25:44;69.75;;;31.35;;
78728;SDS011;68252;44.944;20.218;2023-11-22T11:28:11;73.53;;;34.28;;
78728;SDS011;68252;44.944;20.218;2023-11-22T11:30:41;74.55;;;34.20;;
78728;SDS011;68252;44.944;20.218;2023-11-22T11:33:08;80.38;;;35.42;;
78728;SDS011;68252;44.944;20.218;2023-11-22T11:35:38;76.18;;;32.67;;
78728;SDS011;68252;44.944;20.218;2023-11-22T11:38:04;81.28;;;35.30;;
78728;SDS011;68252;44.944;20.218;2023-11-22T11:40:34;67.68;;;32.10;;
78728;SDS011;68252;44.944;20.218;2023-11-22T11:43:01;64.60;;;31.92;;
78728;SDS011;68252;44.944;20.218;2023-11-22T11:45:27;68.40;;;33.72;;
78728;SDS011;68252;44.944;20.218;2023-11-22T11:47:54;68.25;;;32.00;;
78728;SDS011;68252;44.944;20.218;2023-11-22T11:50:21;65.20;;;30.40;;
78728;SDS011;68252;44.944;20.218;2023-11-22T11:52:47;61.20;;;29.85;;
78728;SDS011;68252;44.944;20.218;2023-11-22T11:55:13;61.20;;;31.13;;
78728;SDS011;68252;44.944;20.218;2023-11-22T11:57:40;70.05;;;33.72;;
78728;SDS011;68252;44.944;20.218;2023-11-22T12:00:07;76.38;;;33.95;;
78728;SDS011;68252;44.944;20.218;2023-11-22T12:02:34;74.60;;;36.15;;
78728;SDS011;68252;44.944;20.218;2023-11-22T12:05:00;75.13;;;34.85;;
78728;SDS011;68252;44.944;20.218;2023-11-22T12:07:34;71.80;;;34.15;;
78728;SDS011;68252;44.944;20.218;2023-11-22T12:10:00;70.88;;;33.55;;
78728;SDS011;68252;44.944;20.218;2023-11-22T12:12:26;71.13;;;34.65;;
78728;SDS011;68252;44.944;20.218;2023-11-22T12:14:54;69.47;;;33.50;;
78728;SDS011;68252;44.944;20.218;2023-11-22T12:17:20;73.25;;;33.50;;
78728;SDS011;68252;44.944;20.218;2023-11-22T12:19:47;70.38;;;31.88;;
78728;SDS011;68252;44.944;20.218;2023-11-22T12:22:14;65.00;;;33.38;;
78728;SDS011;68252;44.944;20.218;2023-11-22T12:24:41;63.80;;;33.83;;
78728;SDS011;68252;44.944;20.218;2023-11-22T12:27:10;69.72;;;33.67;;
78728;SDS011;68252;44.944;20.218;2023-11-22T12:29:36;66.18;;;30.42;;
78728;SDS011;68252;44.944;20.218;2023-11-22T12:32:03;71.05;;;34.13;;
78728;SDS011;68252;44.944;20.218;2023-11-22T12:34:29;60.90;;;32.58;;
78728;SDS011;68252;44.944;20.218;2023-11-22T12:36:55;65.63;;;32.10;;
78728;SDS011;68252;44.944;20.218;2023-11-22T12:39:22;69.25;;;33.88;;
78728;SDS011;68252;44.944;20.218;2023-11-22T12:41:50;68.13;;;32.85;;
78728;SDS011;68252;44.944;20.218;2023-11-22T12:44:16;65.63;;;33.90;;
78728;SDS011;68252;44.944;20.218;2023-11-22T12:46:49;66.15;;;32.15;;
78728;SDS011;68252;44.944;20.218;2023-11-22T12:49:26;65.47;;;31.10;;
78728;SDS011;68252;44.944;20.218;2023-11-22T12:51:53;60.10;;;33.72;;
78728;SDS011;68252;44.944;20.218;2023-11-22T12:54:20;65.82;;;35.75;;
78728;SDS011;68252;44.944;20.218;2023-11-22T12:56:49;67.00;;;34.63;;
78728;SDS011;68252;44.944;20.218;2023-11-22T12:59:16;62.63;;;32.95;;
78728;SDS011;68252;44.944;20.218;2023-11-22T13:04:12;58.38;;;31.77;;
78728;SDS011;68252;44.944;20.218;2023-11-22T13:06:39;68.38;;;34.90;;
78728;SDS011;68252;44.944;20.218;2023-11-22T13:09:06;64.47;;;34.15;;
78728;SDS011;68252;44.944;20.218;2023-11-22T13:11:32;62.20;;;34.03;;
78728;SDS011;68252;44.944;20.218;2023-11-22T13:13:58;60.92;;;33.13;;
78728;SDS011;68252;44.944;20.218;2023-11-22T13:16:24;63.85;;;32.50;;
78728;SDS011;68252;44.944;20.218;2023-11-22T13:18:51;55.50;;;30.55;;
78728;SDS011;68252;44.944;20.218;2023-11-22T13:21:17;55.90;;;28.73;;
78728;SDS011;68252;44.944;20.218;2023-11-22T13:23:44;59.70;;;30.65;;
78728;SDS011;68252;44.944;20.218;2023-11-22T13:26:10;58.90;;;31.35;;
78728;SDS011;68252;44.944;20.218;2023-11-22T13:28:39;68.82;;;30.50;;
78728;SDS011;68252;44.944;20.218;2023-11-22T13:31:07;56.63;;;31.00;;
78728;SDS011;68252;44.944;20.218;2023-11-22T13:33:33;55.95;;;30.98;;
78728;SDS011;68252;44.944;20.218;2023-11-22T13:35:59;57.78;;;29.33;;
78728;SDS011;68252;44.944;20.218;2023-11-22T13:38:25;51.95;;;28.52;;
78728;SDS011;68252;44.944;20.218;2023-11-22T13:40:51;55.92;;;27.75;;
78728;SDS011;68252;44.944;20.218;2023-11-22T13:43:19;53.17;;;28.67;;
78728;SDS011;68252;44.944;20.218;2023-11-22T13:45:45;60.33;;;32.03;;
78728;SDS011;68252;44.944;20.218;2023-11-22T13:48:11;51.15;;;28.13;;
78728;SDS011;68252;44.944;20.218;2023-11-22T13:50:37;53.80;;;28.55;;
78728;SDS011;68252;44.944;20.218;2023-11-22T13:53:03;47.50;;;26.40;;
78728;SDS011;68252;44.944;20.218;2023-11-22T13:55:30;54.47;;;28.95;;
78728;SDS011;68252;44.944;20.218;2023-11-22T13:57:57;44.70;;;24.98;;
78728;SDS011;68252;44.944;20.218;2023-11-22T14:00:27;45.05;;;26.83;;
78728;SDS011;68252;44.944;20.218;2023-11-22T14:02:57;47.92;;;25.13;;
78728;SDS011;68252;44.944;20.218;2023-11-22T14:05:29;47.58;;;28.08;;
78728;SDS011;68252;44.944;20.218;2023-11-22T14:07:56;46.28;;;26.90;;
78728;SDS011;68252;44.944;20.218;2023-11-22T14:10:22;47.00;;;25.63;;
78728;SDS011;68252;44.944;20.218;2023-11-22T14:12:49;49.25;;;26.17;;
78728;SDS011;68252;44.944;20.218;2023-11-22T14:15:15;50.30;;;26.20;;
78728;SDS011;68252;44.944;20.218;2023-11-22T14:17:41;46.63;;;26.98;;
78728;SDS011;68252;44.944;20.218;2023-11-22T14:20:08;44.85;;;24.63;;
78728;SDS011;68252;44.944;20.218;2023-11-22T14:22:35;51.80;;;27.80;;
78728;SDS011;68252;44.944;20.218;2023-11-22T14:25:01;54.38;;;27.95;;
78728;SDS011;68252;44.944;20.218;2023-11-22T14:27:27;45.20;;;25.77;;